createdAt,value
2019-05-14T00:00:38.293Z,7.20
2019-05-14T00:03:11.350Z,7.20
2019-05-14T00:05:44.443Z,7.10
2019-05-14T00:08:17.673Z,7.10
2019-05-14T00:10:52.033Z,7.10
2019-05-14T00:13:25.149Z,7.20
2019-05-14T00:15:58.039Z,7.10
2019-05-14T00:18:31.496Z,7.10
2019-05-14T00:21:04.774Z,7.10
2019-05-14T00:23:37.583Z,7.10
2019-05-14T00:26:12.187Z,7.10
2019-05-14T00:28:44.845Z,7.10
2019-05-14T00:31:17.798Z,7.10
2019-05-14T00:33:51.323Z,7.10
2019-05-14T00:36:24.538Z,7.00
2019-05-14T00:38:57.334Z,7.00
2019-05-14T00:41:31.232Z,7.00
2019-05-14T00:44:04.288Z,7.10
2019-05-14T00:46:37.316Z,7.10
2019-05-14T00:49:11.883Z,7.10
2019-05-14T00:51:44.699Z,7.10
2019-05-14T00:54:18.018Z,7.10
2019-05-14T00:56:52.131Z,7.10
2019-05-14T00:59:25.398Z,7.10
2019-05-14T01:01:58.058Z,7.10
2019-05-14T01:04:31.688Z,7.10
2019-05-14T01:07:04.920Z,7.10
2019-05-14T01:09:37.664Z,7.10
2019-05-14T01:12:12.131Z,7.10
2019-05-14T01:14:46.228Z,7.10
2019-05-14T01:17:19.064Z,7.10
2019-05-14T01:19:52.504Z,7.10
2019-05-14T01:22:25.399Z,7.00
2019-05-14T01:24:58.519Z,7.00
2019-05-14T01:27:31.742Z,7.00
2019-05-14T01:30:04.858Z,7.00
2019-05-14T01:32:37.604Z,7.00
2019-05-14T01:35:12.089Z,7.00
2019-05-14T01:37:45.960Z,7.10
2019-05-14T01:40:19.094Z,7.00
2019-05-14T01:42:52.451Z,7.00
2019-05-14T01:45:28.353Z,7.10
2019-05-14T01:48:01.201Z,7.00
2019-05-14T01:50:34.383Z,7.00
2019-05-14T01:53:07.178Z,7.00
2019-05-14T01:55:41.458Z,7.10
2019-05-14T01:58:14.632Z,7.10
2019-05-14T02:00:47.719Z,7.00
2019-05-14T02:03:21.512Z,7.10
2019-05-14T02:05:54.614Z,7.10
2019-05-14T02:08:27.893Z,7.00
2019-05-14T02:11:01.615Z,7.00
2019-05-14T02:13:35.070Z,6.90
2019-05-14T02:16:07.944Z,6.90
2019-05-14T02:18:41.620Z,6.80
2019-05-14T02:21:14.603Z,6.80
2019-05-14T02:23:47.609Z,6.80
2019-05-14T02:26:22.067Z,6.80
2019-05-14T02:28:55.293Z,6.80
2019-05-14T02:31:29.309Z,6.80
2019-05-14T02:34:02.367Z,6.80
2019-05-14T02:36:35.198Z,6.80
2019-05-14T02:39:10.274Z,6.80
2019-05-14T02:41:43.322Z,6.70
2019-05-14T02:44:18.913Z,6.70
2019-05-14T02:46:51.192Z,6.70
2019-05-14T02:49:23.964Z,6.70
2019-05-14T02:51:59.003Z,6.60
2019-05-14T02:54:31.381Z,6.70
2019-05-14T02:57:04.226Z,6.70
2019-05-14T02:59:39.450Z,6.70
2019-05-14T03:02:11.813Z,6.70
2019-05-14T03:04:44.559Z,6.70
2019-05-14T03:07:19.492Z,6.70
2019-05-14T03:09:52.275Z,6.70
2019-05-14T03:12:25.449Z,6.60
2019-05-14T03:14:58.985Z,6.70
2019-05-14T03:17:31.977Z,6.70
2019-05-14T03:20:04.750Z,6.70
2019-05-14T03:22:46.101Z,6.60
2019-05-14T03:25:12.759Z,6.60
2019-05-14T03:27:49.411Z,6.60
2019-05-14T03:30:22.973Z,6.60
2019-05-14T03:33:01.867Z,6.60
2019-05-14T03:35:41.264Z,6.50
2019-05-14T03:38:05.060Z,6.50
2019-05-14T03:40:39.960Z,6.40
2019-05-14T03:43:12.641Z,6.40
2019-05-14T03:45:45.404Z,6.50
2019-05-14T03:48:19.294Z,6.50
2019-05-14T03:50:54.085Z,6.50
2019-05-14T03:53:29.562Z,6.50
2019-05-14T03:56:01.544Z,6.40
2019-05-14T03:58:34.309Z,6.40
2019-05-14T04:01:09.687Z,6.40
2019-05-14T04:03:41.468Z,6.40
2019-05-14T04:06:14.760Z,6.40
2019-05-14T04:08:49.698Z,6.40
2019-05-14T04:11:22.032Z,6.40
2019-05-14T04:13:55.205Z,6.40
2019-05-14T04:16:29.231Z,6.40
2019-05-14T04:19:02.591Z,6.40
2019-05-14T04:21:35.291Z,6.40
2019-05-14T04:24:09.760Z,6.40
2019-05-14T04:26:56.124Z,6.40
2019-05-14T04:29:19.656Z,6.40
2019-05-14T04:31:51.470Z,6.40
2019-05-14T04:34:24.384Z,6.40
2019-05-14T04:36:59.331Z,6.40
2019-05-14T04:39:33.325Z,6.40
2019-05-14T04:42:09.254Z,6.50
2019-05-14T04:44:41.270Z,6.40
2019-05-14T04:47:27.678Z,6.40
2019-05-14T04:49:50.568Z,6.40
2019-05-14T04:52:25.116Z,6.40
2019-05-14T04:54:59.420Z,6.40
2019-05-14T04:57:32.614Z,6.40
2019-05-14T05:00:05.416Z,6.50
2019-05-14T05:02:39.801Z,6.50
2019-05-14T05:05:12.637Z,6.50
2019-05-14T05:07:45.414Z,6.50
2019-05-14T05:10:19.317Z,6.50
2019-05-14T05:12:52.846Z,6.50
2019-05-14T05:15:25.576Z,6.50
2019-05-14T05:17:59.063Z,6.50
2019-05-14T05:20:32.367Z,6.50
2019-05-14T05:23:08.364Z,6.40
2019-05-14T05:25:40.316Z,6.40
2019-05-14T05:28:13.171Z,6.40
2019-05-14T05:30:48.907Z,6.50
2019-05-14T05:33:20.992Z,6.40
2019-05-14T05:35:54.152Z,6.40
2019-05-14T05:38:29.246Z,6.30
2019-05-14T05:41:01.421Z,6.30
2019-05-14T05:43:34.158Z,6.30
2019-05-14T05:46:08.657Z,6.30
2019-05-14T05:48:42.278Z,6.30
2019-05-14T05:51:14.934Z,6.20
2019-05-14T05:53:48.363Z,6.30
2019-05-14T05:56:21.598Z,6.30
2019-05-14T05:58:54.329Z,6.30
2019-05-14T06:01:42.136Z,6.20
2019-05-14T06:04:01.962Z,6.30
2019-05-14T06:06:34.813Z,6.30
2019-05-14T06:09:08.908Z,6.30
2019-05-14T06:11:42.288Z,6.40
2019-05-14T06:14:15.438Z,6.50
2019-05-14T06:16:48.866Z,6.60
2019-05-14T06:19:21.905Z,6.70
2019-05-14T06:21:54.684Z,6.70
2019-05-14T06:24:28.549Z,6.70
2019-05-14T06:27:01.987Z,6.70
2019-05-14T06:29:35.436Z,6.70
2019-05-14T06:32:09.237Z,6.60
2019-05-14T06:34:42.248Z,6.70
2019-05-14T06:37:15.163Z,6.70
2019-05-14T06:39:48.437Z,6.80
2019-05-14T06:42:21.649Z,6.80
2019-05-14T06:44:54.397Z,6.80
2019-05-14T06:47:28.943Z,6.90
2019-05-14T06:50:01.519Z,6.90
2019-05-14T06:52:34.297Z,7.00
2019-05-14T06:55:08.893Z,7.20
2019-05-14T06:57:41.719Z,7.30
2019-05-14T07:00:14.640Z,7.20
2019-05-14T07:02:49.098Z,7.20
2019-05-14T07:05:22.368Z,7.20
2019-05-14T07:07:55.769Z,7.30
2019-05-14T07:10:28.833Z,7.40
2019-05-14T07:13:01.808Z,7.70
2019-05-14T07:15:34.684Z,7.80
2019-05-14T07:18:08.629Z,7.40
2019-05-14T07:20:42.329Z,7.30
2019-05-14T07:23:15.212Z,7.40
2019-05-14T07:25:48.282Z,7.70
2019-05-14T07:28:21.684Z,7.80
2019-05-14T07:30:54.839Z,8.30
2019-05-14T07:33:29.317Z,8.50
2019-05-14T07:36:01.960Z,8.40
2019-05-14T07:38:34.714Z,8.40
2019-05-14T07:41:09.307Z,8.50
2019-05-14T07:43:42.033Z,8.20
2019-05-14T07:46:14.681Z,8.00
2019-05-14T07:49:03.837Z,7.90
2019-05-14T07:51:21.965Z,7.80
2019-05-14T07:53:54.772Z,7.60
2019-05-14T07:56:29.433Z,7.60
2019-05-14T07:59:02.819Z,7.70
2019-05-14T08:01:38.626Z,7.70
2019-05-14T08:04:11.699Z,7.70
2019-05-14T08:06:45.058Z,7.70
2019-05-14T08:09:18.939Z,7.70
2019-05-14T08:11:52.204Z,7.60
2019-05-14T08:14:24.939Z,7.60
2019-05-14T08:16:59.481Z,7.60
2019-05-14T08:19:34.522Z,7.70
2019-05-14T08:22:09.169Z,7.70
2019-05-14T08:24:41.489Z,7.80
2019-05-14T08:27:14.724Z,7.70
2019-05-14T08:29:48.614Z,7.80
2019-05-14T08:32:22.418Z,7.70
2019-05-14T08:34:55.360Z,7.60
2019-05-14T08:37:28.509Z,7.30
2019-05-14T08:40:01.709Z,7.30
2019-05-14T08:42:35.262Z,7.40
2019-05-14T08:45:10.623Z,7.50
2019-05-14T08:47:43.529Z,7.40
2019-05-14T08:50:18.557Z,7.30
2019-05-14T08:52:51.149Z,7.20
2019-05-14T08:55:24.089Z,7.20
2019-05-14T08:57:59.223Z,7.20
2019-05-14T09:00:31.982Z,7.30
2019-05-14T09:03:04.805Z,7.50
2019-05-14T09:05:38.656Z,7.90
2019-05-14T09:08:11.495Z,8.00
2019-05-14T09:10:44.129Z,8.30
2019-05-14T09:13:18.403Z,8.40
2019-05-14T09:15:51.424Z,8.50
2019-05-14T09:18:24.134Z,8.50
2019-05-14T09:20:58.185Z,8.80
2019-05-14T09:23:31.308Z,8.80
2019-05-14T09:26:04.218Z,8.80
2019-05-14T09:28:39.294Z,8.80
2019-05-14T09:31:11.964Z,8.60
2019-05-14T09:33:44.594Z,8.60
2019-05-14T09:36:22.684Z,8.80
2019-05-14T09:38:52.046Z,8.70
2019-05-14T09:41:27.741Z,8.50
2019-05-14T09:43:59.335Z,8.40
2019-05-14T09:46:32.106Z,8.30
2019-05-14T09:49:04.843Z,8.60
2019-05-14T09:51:38.460Z,8.80
2019-05-14T09:54:11.572Z,8.80
2019-05-14T09:56:44.691Z,9.00
2019-05-14T09:59:18.594Z,9.90
2019-05-14T10:01:51.757Z,10.50
2019-05-14T10:04:25.239Z,10.70
2019-05-14T10:06:59.234Z,11.20
2019-05-14T10:09:32.483Z,10.80
2019-05-14T10:12:05.249Z,10.80
2019-05-14T10:14:39.276Z,10.40
2019-05-14T10:17:12.520Z,9.90
2019-05-14T10:19:45.524Z,9.50
2019-05-14T10:22:19.713Z,8.90
2019-05-14T10:24:52.699Z,8.40
2019-05-14T10:27:25.473Z,8.20
2019-05-14T10:29:58.878Z,8.00
2019-05-14T10:32:31.940Z,8.00
2019-05-14T10:35:04.603Z,8.40
2019-05-14T10:37:39.997Z,8.50
2019-05-14T10:40:12.163Z,8.60
2019-05-14T10:42:44.956Z,8.60
2019-05-14T10:45:18.678Z,8.70
2019-05-14T10:47:52.218Z,8.70
2019-05-14T10:50:25.016Z,8.80
2019-05-14T10:52:59.471Z,8.70
2019-05-14T10:55:32.455Z,8.80
2019-05-14T10:58:05.244Z,8.90
2019-05-14T11:00:41.552Z,8.80
2019-05-14T11:03:13.239Z,8.70
2019-05-14T11:05:48.027Z,8.70
2019-05-14T11:08:20.426Z,8.80
2019-05-14T11:10:54.116Z,8.70
2019-05-14T11:13:29.307Z,8.40
2019-05-14T11:16:02.064Z,8.20
2019-05-14T11:18:35.615Z,8.10
2019-05-14T11:21:21.538Z,8.10
2019-05-14T11:23:44.019Z,8.00
2019-05-14T11:26:18.441Z,7.90
2019-05-14T11:28:52.239Z,7.90
2019-05-14T11:31:25.085Z,7.80
2019-05-14T11:33:59.023Z,7.50
2019-05-14T11:36:32.309Z,7.40
2019-05-14T11:39:05.651Z,7.10
2019-05-14T11:41:38.954Z,7.00
2019-05-14T11:44:12.723Z,6.80
2019-05-14T11:46:56.233Z,6.70
2019-05-14T11:49:20.281Z,6.70
2019-05-14T11:52:04.071Z,6.80
2019-05-14T11:54:29.229Z,7.10
2019-05-14T11:57:02.791Z,7.40
2019-05-14T11:59:36.244Z,7.60
2019-05-14T12:02:09.624Z,7.70
2019-05-14T12:04:42.904Z,7.90
2019-05-14T12:07:15.843Z,8.00
2019-05-14T12:09:48.694Z,8.10
2019-05-14T12:12:21.514Z,8.30
2019-05-14T12:14:54.403Z,8.40
2019-05-14T12:17:29.506Z,8.50
2019-05-14T12:20:01.631Z,8.50
2019-05-14T12:22:34.705Z,8.40
2019-05-14T12:25:08.327Z,8.40
2019-05-14T12:27:41.945Z,8.30
2019-05-14T12:30:14.669Z,8.10
2019-05-14T12:32:50.086Z,8.00
2019-05-14T12:35:22.734Z,8.10
2019-05-14T12:37:55.526Z,8.30
2019-05-14T12:40:28.850Z,8.30
2019-05-14T12:43:01.971Z,8.10
2019-05-14T12:45:35.288Z,8.10
2019-05-14T12:48:09.324Z,8.10
2019-05-14T12:50:42.488Z,8.10
2019-05-14T12:53:15.456Z,8.40
2019-05-14T12:55:48.748Z,8.60
2019-05-14T12:58:21.796Z,8.40
2019-05-14T13:00:54.609Z,8.40
2019-05-14T13:03:28.469Z,8.60
2019-05-14T13:06:02.018Z,8.80
2019-05-14T13:08:34.759Z,8.80
2019-05-14T13:11:09.774Z,8.90
2019-05-14T13:13:43.204Z,8.90
2019-05-14T13:16:18.732Z,8.80
2019-05-14T13:18:50.951Z,8.90
2019-05-14T13:21:23.769Z,8.70
2019-05-14T13:23:56.474Z,8.80
2019-05-14T13:26:29.937Z,8.70
2019-05-14T13:29:05.575Z,8.50
2019-05-14T13:31:37.982Z,8.50
2019-05-14T13:34:11.420Z,8.40
2019-05-14T13:36:45.217Z,8.20
2019-05-14T13:39:19.376Z,8.30
2019-05-14T13:41:53.019Z,8.40
2019-05-14T13:44:25.956Z,8.80
2019-05-14T13:46:59.542Z,8.70
2019-05-14T13:49:33.170Z,8.70
2019-05-14T13:52:09.113Z,8.60
2019-05-14T13:54:40.940Z,8.40
2019-05-14T13:57:13.828Z,8.40
2019-05-14T13:59:49.176Z,8.20
2019-05-14T14:02:22.077Z,8.00
2019-05-14T14:04:54.994Z,7.90
2019-05-14T14:07:27.719Z,7.90
2019-05-14T14:10:00.562Z,8.00
2019-05-14T14:12:33.332Z,8.30
2019-05-14T14:15:09.190Z,8.60
2019-05-14T14:17:40.761Z,8.80
2019-05-14T14:20:13.645Z,8.70
2019-05-14T14:22:49.080Z,8.60
2019-05-14T14:25:21.263Z,8.50
2019-05-14T14:27:54.843Z,8.50
2019-05-14T14:30:28.539Z,8.50
2019-05-14T14:33:02.058Z,8.60
2019-05-14T14:35:35.090Z,8.80
2019-05-14T14:38:08.709Z,8.80
2019-05-14T14:40:42.119Z,8.70
2019-05-14T14:43:14.921Z,8.60
2019-05-14T14:45:51.284Z,8.40
2019-05-14T14:48:22.333Z,8.30
2019-05-14T14:50:58.450Z,8.30
2019-05-14T14:53:43.001Z,8.10
2019-05-14T14:56:04.361Z,8.00
2019-05-14T14:58:39.212Z,7.90
2019-05-14T15:01:12.956Z,7.80
2019-05-14T15:03:49.327Z,7.60
2019-05-14T15:06:20.813Z,7.50
2019-05-14T15:08:53.715Z,7.70
2019-05-14T15:11:29.355Z,7.70
2019-05-14T15:14:01.414Z,7.90
2019-05-14T15:16:34.194Z,7.90
2019-05-14T15:19:09.248Z,7.90
2019-05-14T15:21:41.610Z,8.00
2019-05-14T15:24:15.792Z,8.10
2019-05-14T15:26:48.934Z,8.30
2019-05-14T15:29:21.655Z,8.50
2019-05-14T15:31:54.843Z,8.60
2019-05-14T15:34:29.665Z,8.20
2019-05-14T15:37:02.570Z,8.30
2019-05-14T15:39:35.513Z,8.40
2019-05-14T15:42:13.287Z,8.50
2019-05-14T15:44:52.183Z,8.50
2019-05-14T15:47:18.994Z,8.40
2019-05-14T15:49:52.601Z,8.40
2019-05-14T15:52:25.347Z,8.30
2019-05-14T15:54:58.169Z,8.30
2019-05-14T15:57:30.923Z,8.20
2019-05-14T16:00:03.730Z,8.20
2019-05-14T16:02:39.087Z,8.10
2019-05-14T16:05:11.158Z,8.00
2019-05-14T16:07:43.903Z,7.80
2019-05-14T16:10:16.819Z,7.80
2019-05-14T16:12:50.185Z,7.80
2019-05-14T16:15:23.348Z,7.80
2019-05-14T16:18:08.019Z,7.80
2019-05-14T16:20:30.984Z,7.80
2019-05-14T16:23:03.651Z,7.90
2019-05-14T16:25:38.001Z,7.90
2019-05-14T16:28:11.568Z,7.80
2019-05-14T16:30:44.874Z,7.80
2019-05-14T16:33:18.635Z,7.70
2019-05-14T16:35:51.888Z,7.70
2019-05-14T16:38:24.650Z,7.70
2019-05-14T16:40:59.660Z,7.80
2019-05-14T16:43:32.383Z,7.80
2019-05-14T16:46:09.231Z,7.90
2019-05-14T16:48:40.993Z,7.90
2019-05-14T16:51:14.719Z,7.90
2019-05-14T16:53:48.831Z,7.70
2019-05-14T16:56:22.368Z,7.50
2019-05-14T16:58:55.184Z,7.50
2019-05-14T17:01:30.764Z,7.50
2019-05-14T17:04:03.359Z,7.50
2019-05-14T17:06:38.572Z,7.40
2019-05-14T17:09:10.998Z,7.40
2019-05-14T17:11:43.824Z,7.20
2019-05-14T17:14:18.346Z,7.10
2019-05-14T17:16:51.139Z,7.00
2019-05-14T17:19:24.250Z,7.10
2019-05-14T17:21:59.443Z,7.00
2019-05-14T17:24:31.579Z,7.00
2019-05-14T17:27:04.304Z,6.90
2019-05-14T17:29:38.886Z,6.80
2019-05-14T17:32:12.310Z,7.00
2019-05-14T17:34:45.055Z,7.00
2019-05-14T17:37:19.100Z,7.10
2019-05-14T17:39:52.121Z,7.00
2019-05-14T17:42:24.919Z,6.90
2019-05-14T17:44:58.944Z,6.80
2019-05-14T17:47:31.977Z,6.70
2019-05-14T17:50:04.777Z,6.60
2019-05-14T17:52:43.673Z,6.40
2019-05-14T17:55:12.664Z,6.40
2019-05-14T17:57:48.945Z,6.30
2019-05-14T18:00:20.127Z,6.20
2019-05-14T18:02:52.854Z,6.30
2019-05-14T18:05:26.033Z,6.20
2019-05-14T18:07:59.522Z,6.20
2019-05-14T18:10:32.603Z,6.30
2019-05-14T18:13:05.488Z,6.30
2019-05-14T18:15:39.425Z,6.20
2019-05-14T18:18:13.114Z,6.10
2019-05-14T18:20:45.798Z,6.20
2019-05-14T18:23:18.685Z,6.20
2019-05-14T18:26:03.475Z,6.20
2019-05-14T18:28:28.645Z,6.10
2019-05-14T18:31:00.880Z,6.20
2019-05-14T18:33:33.689Z,6.30
2019-05-14T18:36:06.468Z,6.30
2019-05-14T18:38:39.245Z,6.20
2019-05-14T18:41:12.054Z,6.20
2019-05-14T18:43:45.014Z,6.20
2019-05-14T18:46:19.161Z,6.20
2019-05-14T18:48:53.089Z,6.30
2019-05-14T18:51:25.744Z,6.30
2019-05-14T18:53:58.899Z,6.30
2019-05-14T18:56:31.801Z,6.30
2019-05-14T18:59:04.596Z,6.20
2019-05-14T19:01:39.637Z,6.10
2019-05-14T19:04:11.857Z,6.10
2019-05-14T19:06:45.251Z,6.10
2019-05-14T19:09:18.741Z,6.10
2019-05-14T19:11:52.322Z,6.10
2019-05-14T19:14:25.814Z,6.10
2019-05-14T19:16:58.649Z,6.10
2019-05-14T19:19:31.727Z,6.10
2019-05-14T19:22:04.384Z,6.10
2019-05-14T19:24:38.249Z,6.10
2019-05-14T19:27:11.519Z,6.10
2019-05-14T19:29:44.313Z,6.10
2019-05-14T19:32:19.110Z,6.10
2019-05-14T19:34:51.478Z,6.00
2019-05-14T19:37:24.289Z,6.10
2019-05-14T19:39:58.681Z,6.10
2019-05-14T19:42:31.974Z,6.10
2019-05-14T19:45:04.775Z,6.10
2019-05-14T19:47:39.982Z,6.10
2019-05-14T19:50:12.614Z,6.10
2019-05-14T19:52:45.555Z,6.10
2019-05-14T19:55:18.969Z,6.10
2019-05-14T19:57:52.314Z,6.00
2019-05-14T20:00:25.236Z,6.00
2019-05-14T20:02:58.295Z,6.10
2019-05-14T20:05:31.078Z,6.00
2019-05-14T20:08:04.007Z,6.10
2019-05-14T20:10:38.821Z,6.00
2019-05-14T20:13:11.418Z,6.10
2019-05-14T20:15:44.537Z,6.10
2019-05-14T20:18:17.305Z,6.20
2019-05-14T20:20:50.238Z,6.20
2019-05-14T20:23:23.171Z,6.20
2019-05-14T20:25:55.845Z,6.20
2019-05-14T20:28:28.539Z,6.20
2019-05-14T20:31:01.296Z,6.10
2019-05-14T20:33:34.210Z,6.10
2019-05-14T20:36:08.314Z,6.10
2019-05-14T20:38:42.087Z,6.00
2019-05-14T20:41:14.815Z,6.00
2019-05-14T20:43:48.017Z,6.00
2019-05-14T20:46:21.253Z,6.00
2019-05-14T20:48:54.058Z,6.00
2019-05-14T20:51:28.296Z,6.00
2019-05-14T20:54:01.917Z,6.00
2019-05-14T20:56:34.841Z,5.90
2019-05-14T20:59:08.263Z,6.00
2019-05-14T21:01:41.692Z,6.00
2019-05-14T21:04:14.867Z,6.00
2019-05-14T21:06:48.625Z,6.00
2019-05-14T21:09:22.317Z,6.10
2019-05-14T21:11:55.266Z,6.10
2019-05-14T21:14:28.041Z,6.10
2019-05-14T21:17:01.033Z,6.00
2019-05-14T21:19:34.391Z,6.10
2019-05-14T21:22:08.360Z,6.20
2019-05-14T21:24:42.208Z,6.20
2019-05-14T21:27:15.091Z,6.20
2019-05-14T21:29:48.894Z,6.20
2019-05-14T21:32:22.433Z,6.20
2019-05-14T21:34:55.043Z,6.20
2019-05-14T21:37:28.462Z,6.00
2019-05-14T21:40:01.661Z,6.10
2019-05-14T21:42:34.864Z,6.10
2019-05-14T21:45:09.808Z,6.00
2019-05-14T21:47:42.173Z,6.10
2019-05-14T21:50:15.004Z,6.20
2019-05-14T21:52:49.610Z,6.20
2019-05-14T21:55:22.283Z,6.20
2019-05-14T21:57:57.320Z,6.20
2019-05-14T22:00:31.329Z,6.20
2019-05-14T22:03:04.127Z,6.20
2019-05-14T22:05:39.122Z,6.30
2019-05-14T22:08:11.324Z,6.20
2019-05-14T22:10:44.980Z,6.20
2019-05-14T22:13:18.169Z,6.20
2019-05-14T22:15:51.168Z,6.10
2019-05-14T22:18:23.963Z,6.10
2019-05-14T22:20:58.016Z,6.10
2019-05-14T22:23:31.324Z,6.10
2019-05-14T22:26:04.108Z,6.20
2019-05-14T22:28:36.943Z,6.10
2019-05-14T22:31:11.743Z,6.10
2019-05-14T22:33:45.409Z,6.10
2019-05-14T22:36:21.406Z,6.20
2019-05-14T22:38:53.223Z,6.10
2019-05-14T22:41:25.908Z,6.20
2019-05-14T22:43:59.953Z,6.20
2019-05-14T22:46:34.038Z,6.20
2019-05-14T22:49:08.759Z,6.30
2019-05-14T22:51:41.498Z,6.30
2019-05-14T22:54:14.709Z,6.20
2019-05-14T22:56:48.169Z,6.30
2019-05-14T22:59:21.233Z,6.20
2019-05-14T23:01:54.519Z,6.20
2019-05-14T23:04:28.953Z,6.30
2019-05-14T23:07:01.911Z,6.30
2019-05-14T23:09:34.678Z,6.20
2019-05-14T23:12:12.064Z,6.20
2019-05-14T23:14:42.148Z,6.10
2019-05-14T23:17:14.868Z,6.30
2019-05-14T23:19:48.372Z,6.40
2019-05-14T23:22:22.968Z,6.50
2019-05-14T23:24:59.052Z,6.40
2019-05-14T23:27:31.269Z,6.40
2019-05-14T23:30:04.074Z,6.40
2019-05-14T23:32:38.372Z,6.40
2019-05-14T23:35:11.943Z,6.30
2019-05-14T23:37:45.138Z,6.30
2019-05-14T23:40:17.943Z,6.30
2019-05-14T23:42:51.413Z,6.30
2019-05-14T23:45:24.418Z,6.30
2019-05-14T23:47:58.627Z,6.30
2019-05-14T23:50:31.733Z,6.30
2019-05-14T23:53:04.391Z,6.40
2019-05-14T23:55:38.517Z,6.40
2019-05-14T23:58:11.797Z,6.40
